createdAt,value
2022-10-18T00:00:06.997Z,13.40
2022-10-18T00:02:33.979Z,13.23
2022-10-18T00:05:01.034Z,13.25
2022-10-18T00:07:28.064Z,13.88
2022-10-18T00:09:55.463Z,13.32
2022-10-18T00:12:22.712Z,13.63
2022-10-18T00:14:50.992Z,13.57
2022-10-18T00:17:18.379Z,12.93
2022-10-18T00:19:46.674Z,12.05
2022-10-18T00:22:13.516Z,12.32
2022-10-18T00:24:40.415Z,11.85
2022-10-18T00:27:07.725Z,11.90
2022-10-18T00:29:35.006Z,13.40
2022-10-18T00:32:02.092Z,12.13
2022-10-18T00:34:29.194Z,12.48
2022-10-18T00:36:56.123Z,11.82
2022-10-18T00:39:22.978Z,11.23
2022-10-18T00:41:50.509Z,12.00
2022-10-18T00:44:17.326Z,12.23
2022-10-18T00:46:46.682Z,12.43
2022-10-18T00:49:23.482Z,12.60
2022-10-18T00:51:53.632Z,12.73
2022-10-18T00:54:20.987Z,12.07
2022-10-18T00:56:48.124Z,12.55
2022-10-18T00:59:17.230Z,12.50
2022-10-18T01:01:45.238Z,12.13
2022-10-18T01:04:14.470Z,12.38
2022-10-18T01:07:01.525Z,11.68
2022-10-18T01:10:03.490Z,10.70
2022-10-18T01:12:53.202Z,9.95
2022-10-18T01:15:20.414Z,10.85
2022-10-18T01:18:17.719Z,11.80
2022-10-18T01:20:50.198Z,11.35
2022-10-18T01:23:57.625Z,11.45
2022-10-18T01:26:51.919Z,10.85
2022-10-18T01:30:10.087Z,11.55
2022-10-18T01:32:47.337Z,12.43
2022-10-18T01:35:31.803Z,10.75
2022-10-18T01:38:05.415Z,11.57
2022-10-18T01:40:35.162Z,11.38
2022-10-18T01:43:03.446Z,10.88
2022-10-18T01:45:31.826Z,10.98
2022-10-18T01:48:00.470Z,11.45
2022-10-18T01:50:32.772Z,11.63
2022-10-18T01:52:59.773Z,11.17
2022-10-18T01:55:44.132Z,10.60
2022-10-18T01:58:20.996Z,11.30
2022-10-18T02:00:52.628Z,12.05
2022-10-18T02:03:23.423Z,10.52
2022-10-18T02:06:22.692Z,9.50
2022-10-18T02:08:57.472Z,10.75
2022-10-18T02:11:25.990Z,11.23
2022-10-18T02:14:03.103Z,10.45
2022-10-18T02:16:56.271Z,9.95
2022-10-18T02:19:33.219Z,11.32
2022-10-18T02:22:00.886Z,10.35
2022-10-18T02:24:38.830Z,10.82
2022-10-18T02:27:06.080Z,9.52
2022-10-18T02:29:33.604Z,10.20
2022-10-18T02:32:23.127Z,10.27
2022-10-18T02:34:57.187Z,10.25
2022-10-18T02:37:28.949Z,9.98
2022-10-18T02:39:56.032Z,9.77
2022-10-18T02:42:22.961Z,10.30
2022-10-18T02:44:50.076Z,9.73
2022-10-18T02:47:16.930Z,9.95
2022-10-18T02:49:43.800Z,8.00
2022-10-18T02:52:10.675Z,10.13
2022-10-18T02:54:37.616Z,10.02
2022-10-18T02:57:04.617Z,9.63
2022-10-18T02:59:31.494Z,10.88
2022-10-18T03:01:58.378Z,10.77
2022-10-18T03:04:25.250Z,10.05
2022-10-18T03:06:52.535Z,10.20
2022-10-18T03:09:19.377Z,10.00
2022-10-18T03:11:46.286Z,10.48
2022-10-18T03:14:13.292Z,10.20
2022-10-18T03:16:40.315Z,10.40
2022-10-18T03:19:07.658Z,9.85
2022-10-18T03:21:34.474Z,10.65
2022-10-18T03:24:02.399Z,10.48
2022-10-18T03:26:29.610Z,9.82
2022-10-18T03:28:56.537Z,9.35
2022-10-18T03:31:23.579Z,10.15
2022-10-18T03:33:50.459Z,10.35
2022-10-18T03:36:17.429Z,10.45
2022-10-18T03:38:44.392Z,10.38
2022-10-18T03:41:11.272Z,9.93
2022-10-18T03:43:38.508Z,9.90
2022-10-18T03:46:05.588Z,9.90
2022-10-18T03:48:32.891Z,10.32
2022-10-18T03:51:00.002Z,10.38
2022-10-18T03:53:26.855Z,10.27
2022-10-18T03:55:54.967Z,10.80
2022-10-18T03:58:22.727Z,10.68
2022-10-18T04:00:51.197Z,10.27
2022-10-18T04:03:19.080Z,10.10
2022-10-18T04:05:47.449Z,10.60
2022-10-18T04:08:16.359Z,9.93
2022-10-18T04:10:43.604Z,10.13
2022-10-18T04:13:10.543Z,10.52
2022-10-18T04:15:37.815Z,10.95
2022-10-18T04:18:04.698Z,10.65
2022-10-18T04:20:31.558Z,10.30
2022-10-18T04:22:58.470Z,10.00
2022-10-18T04:25:25.747Z,11.20
2022-10-18T04:27:52.704Z,10.20
2022-10-18T04:30:19.550Z,10.55
2022-10-18T04:32:46.789Z,10.50
2022-10-18T04:35:13.848Z,11.50
2022-10-18T04:37:40.706Z,10.57
2022-10-18T04:40:10.770Z,11.00
2022-10-18T04:42:37.634Z,10.88
2022-10-18T04:45:05.060Z,9.82
2022-10-18T04:47:32.276Z,10.70
2022-10-18T04:49:59.422Z,11.32
2022-10-18T04:52:26.637Z,10.90
2022-10-18T04:54:53.500Z,11.10
2022-10-18T04:57:20.366Z,10.50
2022-10-18T04:59:48.114Z,10.95
2022-10-18T05:02:15.483Z,11.63
2022-10-18T05:04:42.810Z,11.68
2022-10-18T05:07:09.661Z,11.40
2022-10-18T05:09:36.921Z,11.38
2022-10-18T05:12:04.183Z,11.80
2022-10-18T05:14:31.024Z,10.77
2022-10-18T05:16:57.833Z,11.15
2022-10-18T05:19:24.768Z,11.20
2022-10-18T05:21:51.684Z,10.85
2022-10-18T05:24:18.627Z,11.05
2022-10-18T05:26:45.670Z,12.13
2022-10-18T05:29:12.707Z,10.70
2022-10-18T05:31:40.002Z,10.43
2022-10-18T05:34:07.357Z,10.30
2022-10-18T05:36:34.575Z,11.30
2022-10-18T05:39:05.321Z,10.43
2022-10-18T05:41:32.466Z,10.75
2022-10-18T05:43:59.753Z,8.90
2022-10-18T05:46:26.961Z,11.32
2022-10-18T05:48:53.832Z,10.65
2022-10-18T05:51:20.692Z,10.82
2022-10-18T05:53:47.709Z,9.93
2022-10-18T05:56:14.823Z,9.70
2022-10-18T05:58:42.913Z,9.65
2022-10-18T06:01:10.783Z,9.88
2022-10-18T06:03:37.713Z,10.38
2022-10-18T06:06:07.872Z,9.27
2022-10-18T06:08:35.647Z,10.20
2022-10-18T06:11:17.625Z,9.23
2022-10-18T06:13:48.977Z,9.57
2022-10-18T06:16:19.691Z,9.93
2022-10-18T06:18:51.840Z,9.80
2022-10-18T06:21:19.387Z,9.23
2022-10-18T06:23:54.879Z,9.80
2022-10-18T06:26:22.394Z,9.30
2022-10-18T06:28:49.394Z,8.65
2022-10-18T06:31:16.651Z,9.38
2022-10-18T06:33:43.689Z,8.75
2022-10-18T06:36:16.341Z,8.57
2022-10-18T06:38:43.809Z,9.65
2022-10-18T06:41:11.163Z,8.70
2022-10-18T06:43:37.998Z,8.43
2022-10-18T06:46:07.770Z,7.70
2022-10-18T06:48:36.299Z,8.73
2022-10-18T06:51:05.571Z,7.90
2022-10-18T06:53:34.532Z,9.68
2022-10-18T06:56:07.014Z,9.55
2022-10-18T06:58:35.119Z,9.50
2022-10-18T07:01:16.151Z,9.43
2022-10-18T07:03:44.037Z,11.07
2022-10-18T07:06:12.406Z,10.55
2022-10-18T07:08:40.454Z,10.95
2022-10-18T07:11:08.251Z,10.65
2022-10-18T07:13:35.441Z,9.57
2022-10-18T07:16:07.056Z,10.23
2022-10-18T07:18:39.464Z,9.27
2022-10-18T07:21:08.620Z,8.93
2022-10-18T07:23:37.263Z,9.13
2022-10-18T07:26:12.017Z,10.10
2022-10-18T07:28:39.046Z,20.60
2022-10-18T07:31:07.438Z,9.40
2022-10-18T07:33:35.562Z,8.88
2022-10-18T07:36:03.795Z,9.50
2022-10-18T07:38:30.943Z,9.93
2022-10-18T07:40:58.869Z,21.85
2022-10-18T07:43:25.859Z,9.10
2022-10-18T07:45:54.405Z,9.20
2022-10-18T07:48:21.331Z,8.98
2022-10-18T07:50:48.388Z,8.80
2022-10-18T07:53:15.494Z,8.23
2022-10-18T07:55:43.318Z,8.68
2022-10-18T07:58:10.780Z,9.07
2022-10-18T08:00:37.939Z,7.38
2022-10-18T08:03:05.037Z,8.10
2022-10-18T08:08:01.955Z,7.80
2022-10-18T08:10:31.317Z,8.57
2022-10-18T08:12:58.159Z,7.97
2022-10-18T08:15:25.750Z,7.28
2022-10-18T08:17:52.924Z,17.20
2022-10-18T08:20:30.293Z,8.18
2022-10-18T08:23:00.503Z,7.78
2022-10-18T08:25:28.651Z,8.18
2022-10-18T08:27:55.527Z,7.13
2022-10-18T08:30:23.861Z,7.97
2022-10-18T08:32:50.694Z,7.57
2022-10-18T08:35:17.539Z,7.30
2022-10-18T08:37:45.881Z,9.00
2022-10-18T08:40:16.241Z,7.95
2022-10-18T08:42:43.448Z,7.95
2022-10-18T08:45:30.189Z,9.32
2022-10-18T08:47:59.889Z,8.23
2022-10-18T08:50:35.456Z,7.75
2022-10-18T08:53:19.564Z,8.68
2022-10-18T08:55:52.592Z,8.35
2022-10-18T09:01:19.871Z,8.07
2022-10-18T09:03:52.573Z,7.93
2022-10-18T09:06:40.709Z,8.77
2022-10-18T09:09:41.476Z,7.65
2022-10-18T09:12:31.292Z,7.85
2022-10-18T09:15:07.623Z,8.15
2022-10-18T09:17:40.373Z,8.13
2022-10-18T09:20:24.856Z,7.70
2022-10-18T09:23:00.480Z,7.20
2022-10-18T09:25:37.265Z,7.85
2022-10-18T09:28:33.499Z,7.18
2022-10-18T09:31:27.956Z,6.55
2022-10-18T09:34:02.447Z,7.38
2022-10-18T09:36:37.384Z,7.18
2022-10-18T09:39:16.799Z,7.85
2022-10-18T09:42:01.745Z,7.97
2022-10-18T09:44:52.447Z,7.00
2022-10-18T09:47:26.638Z,6.68
2022-10-18T09:50:02.524Z,6.75
2022-10-18T09:52:59.052Z,5.57
2022-10-18T09:55:32.209Z,5.95
2022-10-18T09:58:02.469Z,6.07
2022-10-18T10:00:48.669Z,5.10
2022-10-18T10:03:15.940Z,5.93
2022-10-18T10:05:44.355Z,5.53
2022-10-18T10:08:11.711Z,5.93
2022-10-18T10:10:47.586Z,5.30
2022-10-18T10:13:16.157Z,5.55
2022-10-18T10:16:02.888Z,10.18
2022-10-18T10:18:33.368Z,5.03
2022-10-18T10:21:05.729Z,5.95
2022-10-18T10:23:53.051Z,5.28
2022-10-18T10:26:23.102Z,5.03
2022-10-18T10:28:50.303Z,4.75
2022-10-18T10:31:28.076Z,4.90
2022-10-18T10:34:01.691Z,4.85
2022-10-18T10:36:29.894Z,4.88
2022-10-18T10:39:25.922Z,4.97
2022-10-18T10:41:56.463Z,5.15
2022-10-18T10:44:30.220Z,5.85
2022-10-18T10:46:58.467Z,4.95
2022-10-18T10:49:45.905Z,5.43
2022-10-18T10:52:28.963Z,5.40
2022-10-18T10:57:47.433Z,4.93
2022-10-18T11:00:36.699Z,4.80
2022-10-18T11:03:29.009Z,5.05
2022-10-18T11:05:58.002Z,5.00
2022-10-18T11:08:29.816Z,5.78
2022-10-18T11:11:23.078Z,10.93
2022-10-18T11:13:56.949Z,5.00
2022-10-18T11:17:12.880Z,5.10
2022-10-18T11:20:01.561Z,5.43
2022-10-18T11:22:32.672Z,4.60
2022-10-18T11:24:59.686Z,5.25
2022-10-18T11:27:53.642Z,5.13
2022-10-18T11:30:26.245Z,5.22
2022-10-18T11:33:17.920Z,5.13
2022-10-18T11:36:02.845Z,5.38
2022-10-18T11:38:55.634Z,4.90
2022-10-18T11:41:28.280Z,5.05
2022-10-18T11:46:47.105Z,5.45
2022-10-18T11:49:29.223Z,5.05
2022-10-18T11:52:07.856Z,5.70
2022-10-18T11:54:53.607Z,5.47
2022-10-18T11:57:53.664Z,4.95
2022-10-18T12:00:32.619Z,6.07
2022-10-18T12:03:14.986Z,5.10
2022-10-18T12:05:45.968Z,6.38
2022-10-18T12:08:23.070Z,5.40
2022-10-18T12:11:09.224Z,5.70
2022-10-18T12:14:05.510Z,5.53
2022-10-18T12:16:50.878Z,5.22
2022-10-18T12:19:27.925Z,5.50
2022-10-18T12:22:05.827Z,5.93
2022-10-18T12:24:34.416Z,5.45
2022-10-18T12:27:02.432Z,5.75
2022-10-18T12:29:51.568Z,5.93
2022-10-18T12:32:32.466Z,5.82
2022-10-18T12:35:10.727Z,5.70
2022-10-18T12:37:47.734Z,6.07
2022-10-18T12:40:48.712Z,6.80
2022-10-18T12:43:23.690Z,6.10
2022-10-18T12:45:53.500Z,5.88
2022-10-18T12:48:42.629Z,6.57
2022-10-18T12:51:21.018Z,5.80
2022-10-18T12:54:03.075Z,6.22
2022-10-18T12:56:30.161Z,5.28
2022-10-18T12:59:15.597Z,4.93
2022-10-18T13:02:02.701Z,5.22
2022-10-18T13:04:35.338Z,5.70
2022-10-18T13:07:05.408Z,5.85
2022-10-18T13:09:36.149Z,6.00
2022-10-18T13:12:13.058Z,5.28
2022-10-18T13:15:13.330Z,5.50
2022-10-18T13:17:50.442Z,5.45
2022-10-18T13:20:37.514Z,5.20
2022-10-18T13:23:38.066Z,5.55
2022-10-18T13:26:28.505Z,5.57
2022-10-18T13:29:26.647Z,5.70
2022-10-18T13:34:50.178Z,5.45
2022-10-18T13:37:17.461Z,5.55
2022-10-18T13:39:44.876Z,5.93
2022-10-18T13:42:14.860Z,5.35
2022-10-18T13:44:44.627Z,5.25
2022-10-18T13:47:30.395Z,5.57
2022-10-18T13:53:21.336Z,5.90
2022-10-18T13:56:12.317Z,6.03
2022-10-18T13:59:13.149Z,5.78
2022-10-18T14:01:53.410Z,6.15
2022-10-18T14:04:23.449Z,6.85
2022-10-18T14:06:51.967Z,6.63
2022-10-18T14:09:45.323Z,6.65
2022-10-18T14:12:26.743Z,7.60
2022-10-18T14:15:12.059Z,6.78
2022-10-18T14:20:21.039Z,7.77
2022-10-18T14:23:11.144Z,7.65
2022-10-18T14:25:39.615Z,7.38
2022-10-18T14:28:16.922Z,7.75
2022-10-18T14:31:07.646Z,8.15
2022-10-18T14:33:38.060Z,7.10
2022-10-18T14:36:12.923Z,6.93
2022-10-18T14:38:55.143Z,7.40
2022-10-18T14:41:25.421Z,5.75
2022-10-18T14:43:54.019Z,6.38
2022-10-18T14:46:27.317Z,7.30
2022-10-18T14:49:04.779Z,7.82
2022-10-18T14:51:35.663Z,7.10
2022-10-18T14:54:03.164Z,8.40
2022-10-18T14:56:32.890Z,8.13
2022-10-18T14:59:04.832Z,9.68
2022-10-18T15:01:32.825Z,10.57
2022-10-18T15:04:04.680Z,10.20
2022-10-18T15:06:33.657Z,10.85
2022-10-18T15:09:04.555Z,10.48
2022-10-18T15:11:32.135Z,8.77
2022-10-18T15:14:03.187Z,9.88
2022-10-18T15:16:31.970Z,8.75
2022-10-18T15:19:31.755Z,8.98
2022-10-18T15:22:31.408Z,9.35
2022-10-18T15:27:47.104Z,8.98
2022-10-18T15:30:19.919Z,8.80
2022-10-18T15:32:50.329Z,8.68
2022-10-18T15:35:25.686Z,9.57
2022-10-18T15:37:54.137Z,10.80
2022-10-18T15:40:23.718Z,9.05
2022-10-18T15:42:52.385Z,9.15
2022-10-18T15:45:25.215Z,9.45
2022-10-18T15:47:58.124Z,10.50
2022-10-18T15:50:44.636Z,10.27
2022-10-18T15:53:20.916Z,11.73
2022-10-18T15:55:57.749Z,11.88
2022-10-18T15:58:47.406Z,11.10
2022-10-18T16:01:23.066Z,13.23
2022-10-18T16:03:51.507Z,12.20
2022-10-18T16:06:18.876Z,13.73
2022-10-18T16:08:51.201Z,13.57
2022-10-18T16:11:24.230Z,14.38
2022-10-18T16:16:26.212Z,15.40
2022-10-18T16:18:54.391Z,15.57
2022-10-18T16:21:30.602Z,15.88
2022-10-18T16:23:58.469Z,17.13
2022-10-18T16:26:26.958Z,16.33
2022-10-18T16:28:54.632Z,17.02
2022-10-18T16:31:24.516Z,18.10
2022-10-18T16:33:52.598Z,18.42
2022-10-18T16:36:27.712Z,17.45
2022-10-18T16:38:55.141Z,16.90
2022-10-18T16:41:22.656Z,17.30
2022-10-18T16:43:50.398Z,18.10
2022-10-18T16:46:22.735Z,18.20
2022-10-18T16:48:51.342Z,17.98
2022-10-18T16:51:18.467Z,18.17
2022-10-18T16:53:45.825Z,17.27
2022-10-18T16:56:28.247Z,17.30
2022-10-18T16:58:55.286Z,16.07
2022-10-18T17:01:23.579Z,16.35
2022-10-18T17:03:52.333Z,17.02
2022-10-18T17:06:22.450Z,17.40
2022-10-18T17:08:49.678Z,17.33
2022-10-18T17:11:17.769Z,18.15
2022-10-18T17:13:45.436Z,19.20
2022-10-18T17:18:57.897Z,19.77
2022-10-18T17:21:26.398Z,18.63
2022-10-18T17:23:53.426Z,19.52
2022-10-18T17:26:30.434Z,19.80
2022-10-18T17:29:03.788Z,18.42
2022-10-18T17:31:32.202Z,18.05
2022-10-18T17:34:01.776Z,16.55
2022-10-18T17:36:30.351Z,13.70
2022-10-18T17:38:58.106Z,12.80
2022-10-18T17:41:25.211Z,14.45
2022-10-18T17:43:52.464Z,12.82
2022-10-18T17:46:19.768Z,12.75
2022-10-18T17:48:47.258Z,12.40
2022-10-18T17:51:16.480Z,13.65
2022-10-18T17:53:43.456Z,13.43
2022-10-18T17:56:11.086Z,12.57
2022-10-18T17:58:38.423Z,15.43
2022-10-18T18:01:23.263Z,13.93
2022-10-18T18:04:03.761Z,13.20
2022-10-18T18:06:34.179Z,13.40
2022-10-18T18:09:17.845Z,12.77
2022-10-18T18:11:48.226Z,12.25
2022-10-18T18:14:16.244Z,12.68
2022-10-18T18:16:50.498Z,12.75
2022-10-18T18:19:20.457Z,12.25
2022-10-18T18:21:47.907Z,13.05
2022-10-18T18:24:18.826Z,11.90
2022-10-18T18:26:45.944Z,11.98
2022-10-18T18:29:13.764Z,13.02
2022-10-18T18:31:43.424Z,12.80
2022-10-18T18:34:12.450Z,13.10
2022-10-18T18:36:40.151Z,12.73
2022-10-18T18:39:09.034Z,12.38
2022-10-18T18:41:37.812Z,12.45
2022-10-18T18:44:06.288Z,12.10
2022-10-18T18:46:38.376Z,12.40
2022-10-18T18:49:06.771Z,18.48
2022-10-18T18:51:34.102Z,12.77
2022-10-18T18:54:01.099Z,12.95
2022-10-18T18:56:29.181Z,11.75
2022-10-18T18:58:58.723Z,12.30
2022-10-18T19:01:31.531Z,12.25
2022-10-18T19:03:59.509Z,12.25
2022-10-18T19:06:29.408Z,12.23
2022-10-18T19:09:04.647Z,11.70
2022-10-18T19:11:38.798Z,12.23
2022-10-18T19:14:07.708Z,11.10
2022-10-18T19:16:46.072Z,12.27
2022-10-18T19:19:31.838Z,12.05
2022-10-18T19:22:01.026Z,12.50
2022-10-18T19:24:32.618Z,13.18
2022-10-18T19:27:05.052Z,14.20
2022-10-18T19:29:34.640Z,12.80
2022-10-18T19:32:04.503Z,11.38
2022-10-18T19:34:32.465Z,12.90
2022-10-18T19:37:00.159Z,11.65
2022-10-18T19:39:32.143Z,10.68
2022-10-18T19:42:03.389Z,11.75
2022-10-18T19:44:32.440Z,10.40
2022-10-18T19:46:59.818Z,11.07
2022-10-18T19:49:28.709Z,11.30
2022-10-18T19:51:56.791Z,12.27
2022-10-18T19:54:23.907Z,15.10
2022-10-18T19:56:51.145Z,15.65
2022-10-18T19:59:18.749Z,18.00
2022-10-18T20:01:45.976Z,19.67
2022-10-18T20:04:13.713Z,10.15
2022-10-18T20:06:41.078Z,9.02
2022-10-18T20:09:11.573Z,4.45
2022-10-18T20:11:40.651Z,3.83
2022-10-18T20:14:09.697Z,3.60
2022-10-18T20:16:36.994Z,2.75
2022-10-18T20:19:07.484Z,3.67
2022-10-18T20:21:36.017Z,15.75
2022-10-18T20:24:04.875Z,1.90
2022-10-18T20:26:32.432Z,1.50
2022-10-18T20:29:00.195Z,1.02
2022-10-18T20:31:33.881Z,1.50
2022-10-18T20:34:03.051Z,1.65
2022-10-18T20:36:31.535Z,1.75
2022-10-18T20:38:58.984Z,1.63
2022-10-18T20:41:34.050Z,1.63
2022-10-18T20:44:04.137Z,1.90
2022-10-18T20:46:33.592Z,1.67
2022-10-18T20:49:00.981Z,2.10
2022-10-18T20:51:28.400Z,1.30
2022-10-18T20:53:55.437Z,1.23
2022-10-18T20:56:26.467Z,1.40
2022-10-18T20:58:56.703Z,2.03
2022-10-18T21:01:26.606Z,1.40
2022-10-18T21:03:56.043Z,1.60
2022-10-18T21:06:26.929Z,1.10
2022-10-18T21:08:59.469Z,1.30
2022-10-18T21:11:28.560Z,1.45
2022-10-18T21:13:59.569Z,1.98
2022-10-18T21:16:27.311Z,2.92
2022-10-18T21:18:54.937Z,4.00
2022-10-18T21:21:25.323Z,1.77
2022-10-18T21:23:52.531Z,4.10
2022-10-18T21:26:25.589Z,1.58
2022-10-18T21:28:54.362Z,2.30
2022-10-18T21:31:23.234Z,2.63
2022-10-18T21:33:59.268Z,1.73
2022-10-18T21:36:29.962Z,1.70
2022-10-18T21:38:57.100Z,1.80
2022-10-18T21:41:24.411Z,1.58
2022-10-18T21:43:53.340Z,1.90
2022-10-18T21:46:22.047Z,2.00
2022-10-18T21:48:51.060Z,2.10
2022-10-18T21:51:19.779Z,2.38
2022-10-18T21:53:48.716Z,1.95
2022-10-18T21:56:24.877Z,2.65
2022-10-18T21:58:51.822Z,2.25
2022-10-18T22:01:26.753Z,2.42
2022-10-18T22:03:55.738Z,2.55
2022-10-18T22:06:23.427Z,2.75
2022-10-18T22:08:50.818Z,2.83
2022-10-18T22:11:19.818Z,2.88
2022-10-18T22:13:47.193Z,12.13
2022-10-18T22:16:15.872Z,2.92
2022-10-18T22:18:43.833Z,2.53
2022-10-18T22:21:13.042Z,3.50
2022-10-18T22:23:43.085Z,2.88
2022-10-18T22:26:19.890Z,2.50
2022-10-18T22:28:47.514Z,2.63
2022-10-18T22:31:17.182Z,3.00
2022-10-18T22:33:45.231Z,3.08
2022-10-18T22:36:13.199Z,3.08
2022-10-18T22:38:40.270Z,3.38
2022-10-18T22:41:11.802Z,3.65
2022-10-18T22:43:39.365Z,3.70
2022-10-18T22:46:11.985Z,3.60
2022-10-18T22:48:39.643Z,3.63
2022-10-18T22:51:07.376Z,3.90
2022-10-18T22:53:34.924Z,4.30
2022-10-18T22:56:02.250Z,3.63
2022-10-18T22:58:29.314Z,4.07
2022-10-18T23:01:13.974Z,3.58
2022-10-18T23:03:41.642Z,3.80
2022-10-18T23:06:21.217Z,15.52
2022-10-18T23:08:48.696Z,4.03
2022-10-18T23:11:15.948Z,3.45
2022-10-18T23:13:43.212Z,3.90
2022-10-18T23:16:10.102Z,3.53
2022-10-18T23:18:37.291Z,4.05
2022-10-18T23:21:06.651Z,4.32
2022-10-18T23:23:35.639Z,4.00
2022-10-18T23:26:08.228Z,4.32
2022-10-18T23:28:40.532Z,4.70
2022-10-18T23:31:19.185Z,4.83
2022-10-18T23:33:47.776Z,5.38
2022-10-18T23:36:15.733Z,4.80
2022-10-18T23:38:43.167Z,5.18
2022-10-18T23:41:12.140Z,5.72
2022-10-18T23:43:39.690Z,6.03
2022-10-18T23:46:06.984Z,11.43
2022-10-18T23:48:34.389Z,8.00
2022-10-18T23:51:02.441Z,9.45
2022-10-18T23:53:29.353Z,10.20
2022-10-18T23:56:16.200Z,12.70
2022-10-18T23:58:43.642Z,14.73
